Time;durP1;ratioP1;P1;durP2;ratioP2;P2;SDS_P1;SDS_P2;PMS_P1;PMS_P2;Temp;Humidity;BMP_temperature;BMP_pressure;BME280_temperature;BME280_humidity;BME280_pressure;Samples;Min_cycle;Max_cycle;Signal;HPM_P1;HPM_P2
2023/04/13 00:00:09;;;;;;;4.10;3.80;;;10.20;99.90;;;;;;4929771;29;20308;-69
2023/04/13 00:02:37;;;;;;;3.90;3.60;;;10.30;99.90;;;;;;4930268;29;20259;-70
2023/04/13 00:05:08;;;;;;;4.40;4.10;;;10.30;99.90;;;;;;4929437;29;20228;-69
2023/04/13 00:07:37;;;;;;;5.20;3.70;;;10.30;99.90;;;;;;4924518;29;20224;-69
2023/04/13 00:10:05;;;;;;;3.70;3.40;;;10.30;99.90;;;;;;4929376;29;20220;-69
2023/04/13 00:12:32;;;;;;;3.93;3.53;;;10.30;99.90;;;;;;4929589;29;20224;-70
2023/04/13 00:14:59;;;;;;;3.93;3.50;;;10.40;99.90;;;;;;4928899;29;20813;-70
2023/04/13 00:17:26;;;;;;;4.47;3.90;;;10.30;99.90;;;;;;4929319;29;20243;-69
2023/04/13 00:19:56;;;;;;;3.93;3.73;;;10.30;99.90;;;;;;4929772;29;20212;-70
2023/04/13 00:22:26;;;;;;;3.83;3.53;;;10.30;99.90;;;;;;4929383;29;20196;-70
2023/04/13 00:24:54;;;;;;;4.20;3.73;;;10.20;99.90;;;;;;4928996;29;20220;-70
2023/04/13 00:27:21;;;;;;;4.00;3.70;;;10.10;99.90;;;;;;4929232;29;20263;-69
2023/04/13 00:29:49;;;;;;;4.40;4.10;;;10.00;99.90;;;;;;4928688;29;20250;-69
2023/04/13 00:32:15;;;;;;;4.50;4.13;;;9.90;99.90;;;;;;4928979;29;20240;-71
2023/04/13 00:34:42;;;;;;;4.70;3.90;;;10.00;99.90;;;;;;4929004;29;20295;-70
2023/04/13 00:37:10;;;;;;;4.60;4.30;;;10.00;99.90;;;;;;4928977;29;20299;-71
2023/04/13 00:39:38;;;;;;;4.30;3.90;;;9.90;99.90;;;;;;4929158;29;20586;-70
2023/04/13 00:42:07;;;;;;;4.20;3.77;;;9.90;99.90;;;;;;4928924;29;20211;-70
2023/04/13 00:44:34;;;;;;;4.77;4.37;;;9.90;99.90;;;;;;4928891;29;20216;-71
2023/04/13 00:47:03;;;;;;;4.47;4.07;;;9.80;99.90;;;;;;4928989;29;20235;-71
2023/04/13 00:49:32;;;;;;;4.83;4.43;;;9.80;99.90;;;;;;4929072;29;20239;-70
2023/04/13 00:52:00;;;;;;;5.13;4.73;;;9.70;99.90;;;;;;4928885;29;20217;-70
2023/04/13 00:54:28;;;;;;;4.90;4.50;;;9.70;99.90;;;;;;4929084;29;20204;-70
2023/04/13 00:56:57;;;;;;;5.37;4.97;;;9.70;99.90;;;;;;4938709;29;20219;-69
2023/04/13 00:59:26;;;;;;;6.13;5.13;;;9.70;99.90;;;;;;4928569;29;20216;-69
2023/04/13 01:01:55;;;;;;;5.00;4.60;;;9.70;99.90;;;;;;4928978;29;20208;-70
2023/04/13 01:04:24;;;;;;;5.57;5.07;;;9.60;99.90;;;;;;4928639;29;20232;-70
2023/04/13 01:07:06;;;;;;;5.27;4.87;;;9.60;99.90;;;;;;4928402;29;20208;-70
2023/04/13 01:09:39;;;;;;;5.03;4.73;;;9.60;99.90;;;;;;4928533;29;20315;-70
2023/04/13 01:12:16;;;;;;;5.10;4.73;;;9.60;99.90;;;;;;4928183;29;20267;-70
2023/04/13 01:14:49;;;;;;;5.57;5.07;;;9.50;99.90;;;;;;4928831;29;20223;-70
2023/04/13 01:17:21;;;;;;;5.40;5.00;;;9.30;99.90;;;;;;4928187;29;20228;-70
2023/04/13 01:19:55;;;;;;;5.80;5.23;;;9.10;99.90;;;;;;4928401;29;20208;-70
2023/04/13 01:22:26;;;;;;;5.87;5.37;;;9.10;99.90;;;;;;4928680;29;20196;-70
2023/04/13 01:25:08;;;;;;;5.80;5.30;;;8.90;99.90;;;;;;4928207;29;20675;-70
2023/04/13 01:27:47;;;;;;;5.80;5.40;;;8.90;99.90;;;;;;4928769;29;20212;-70
2023/04/13 01:30:17;;;;;;;5.53;4.93;;;8.80;99.90;;;;;;4925965;29;20236;-70
2023/04/13 01:32:44;;;;;;;6.23;5.40;;;8.80;99.90;;;;;;4928436;29;20219;-70
2023/04/13 01:35:11;;;;;;;5.70;5.20;;;8.70;99.90;;;;;;4928388;29;20750;-70
2023/04/13 01:37:38;;;;;;;5.87;5.40;;;8.70;99.90;;;;;;4932982;29;20204;-70
2023/04/13 01:40:09;;;;;;;6.43;5.83;;;8.60;99.90;;;;;;4945236;28;20219;-70
2023/04/13 01:42:36;;;;;;;6.57;5.97;;;8.50;99.90;;;;;;4928074;29;20224;-70
2023/04/13 01:45:07;;;;;;;6.80;6.23;;;8.50;99.90;;;;;;4927966;29;20212;-69
2023/04/13 01:47:36;;;;;;;7.10;6.50;;;8.40;99.90;;;;;;4927956;29;20616;-69
2023/04/13 01:50:12;;;;;;;7.37;6.77;;;8.40;99.90;;;;;;4928012;29;20354;-69
2023/04/13 01:52:40;;;;;;;7.47;6.87;;;8.40;99.90;;;;;;4917847;29;20206;-70
2023/04/13 01:55:11;;;;;;;6.33;5.80;;;8.50;99.90;;;;;;4928129;29;20212;-70
2023/04/13 01:57:40;;;;;;;6.50;6.00;;;8.30;99.90;;;;;;4928413;29;20204;-70
2023/04/13 02:00:12;;;;;;;6.83;6.10;;;8.20;99.90;;;;;;4927757;29;20218;-70
2023/04/13 02:02:39;;;;;;;5.93;5.27;;;8.10;99.90;;;;;;4928412;29;20310;-70
2023/04/13 02:05:08;;;;;;;6.40;5.80;;;8.00;99.90;;;;;;4928105;29;20318;-70
2023/04/13 02:07:36;;;;;;;5.83;5.27;;;8.00;99.90;;;;;;4927938;29;20252;-69
2023/04/13 02:10:04;;;;;;;6.27;5.67;;;7.90;99.90;;;;;;4927783;29;20319;-69
2023/04/13 02:12:32;;;;;;;6.03;5.43;;;7.80;99.90;;;;;;4928380;29;20212;-69
2023/04/13 02:15:00;;;;;;;5.90;5.40;;;7.90;99.90;;;;;;4927586;29;20218;-70
2023/04/13 02:17:29;;;;;;;6.10;5.07;;;7.80;99.90;;;;;;4927342;29;20746;-70
2023/04/13 02:19:56;;;;;;;6.33;4.93;;;7.70;99.90;;;;;;4927839;29;20212;-69
2023/04/13 02:22:23;;;;;;;5.07;4.57;;;7.70;99.90;;;;;;4927764;29;20209;-70
2023/04/13 02:24:50;;;;;;;5.70;5.10;;;7.70;99.90;;;;;;4931287;29;20244;-70
2023/04/13 02:27:17;;;;;;;6.37;5.17;;;7.70;99.90;;;;;;4931362;29;20240;-70
2023/04/13 02:29:44;;;;;;;5.37;4.87;;;7.80;99.90;;;;;;4929628;29;20249;-69
2023/04/13 02:32:11;;;;;;;5.17;4.67;;;7.70;99.90;;;;;;4929263;29;20330;-70
2023/04/13 02:34:40;;;;;;;7.00;4.83;;;7.80;99.90;;;;;;4929223;29;20682;-70
2023/04/13 02:37:08;;;;;;;8.00;5.20;;;7.80;99.90;;;;;;4929367;29;20219;-70
2023/04/13 02:39:36;;;;;;;6.07;5.30;;;7.80;99.90;;;;;;4928994;29;20216;-69
2023/04/13 02:42:03;;;;;;;6.40;4.53;;;7.90;99.90;;;;;;4929172;29;20208;-70
2023/04/13 02:44:30;;;;;;;5.47;4.87;;;7.90;99.90;;;;;;4910371;29;20678;-70
2023/04/13 02:46:57;;;;;;;5.47;4.67;;;7.90;99.90;;;;;;4923406;29;20230;-70
2023/04/13 02:49:23;;;;;;;5.87;4.47;;;8.00;99.90;;;;;;4939973;29;20605;-70
2023/04/13 02:51:52;;;;;;;5.80;4.70;;;8.00;99.90;;;;;;4948700;28;20668;-70
2023/04/13 02:54:19;;;;;;;4.73;4.20;;;7.90;99.90;;;;;;4948313;28;20298;-70
2023/04/13 02:56:46;;;;;;;5.20;4.70;;;7.80;99.90;;;;;;4936417;28;20385;-70
2023/04/13 02:59:13;;;;;;;6.53;4.93;;;7.70;99.90;;;;;;4920318;29;20295;-71
2023/04/13 03:01:40;;;;;;;4.83;4.43;;;7.60;99.90;;;;;;4930724;29;20219;-70
2023/04/13 03:04:08;;;;;;;5.83;4.83;;;7.50;99.90;;;;;;4930583;29;20327;-70
2023/04/13 03:06:34;;;;;;;6.00;4.47;;;7.50;99.90;;;;;;4930751;29;20218;-70
2023/04/13 03:09:04;;;;;;;5.40;4.90;;;7.50;99.90;;;;;;4930038;29;20319;-71
2023/04/13 03:11:31;;;;;;;5.07;4.57;;;7.50;99.90;;;;;;4929690;29;20299;-70
2023/04/13 03:14:00;;;;;;;6.03;4.80;;;7.50;99.90;;;;;;4929738;29;20889;-70
2023/04/13 03:16:27;;;;;;;4.30;3.90;;;7.40;99.90;;;;;;4929575;29;20236;-70
2023/04/13 03:18:54;;;;;;;5.27;4.40;;;7.40;99.90;;;;;;4930067;29;20223;-71
2023/04/13 03:21:21;;;;;;;5.57;4.20;;;7.30;99.90;;;;;;4929676;29;20212;-70
2023/04/13 03:23:49;;;;;;;5.63;4.37;;;7.30;99.90;;;;;;4930284;29;20240;-70
2023/04/13 03:26:17;;;;;;;4.60;4.17;;;7.30;99.90;;;;;;4930295;29;20744;-70
2023/04/13 03:28:46;;;;;;;4.60;4.03;;;7.30;99.90;;;;;;4929914;29;20216;-70
2023/04/13 03:31:13;;;;;;;6.07;4.07;;;7.40;99.90;;;;;;4930098;29;20208;-70
2023/04/13 03:33:40;;;;;;;4.63;4.27;;;7.40;99.90;;;;;;4929769;29;20246;-70
2023/04/13 03:36:08;;;;;;;6.90;4.90;;;7.50;99.90;;;;;;4929847;29;20738;-70
2023/04/13 03:38:35;;;;;;;4.80;4.30;;;7.50;99.90;;;;;;4929897;29;20259;-70
2023/04/13 03:41:02;;;;;;;4.30;3.90;;;7.50;99.90;;;;;;4929811;29;20216;-70
2023/04/13 03:43:30;;;;;;;4.57;4.17;;;7.50;99.90;;;;;;4930197;29;20642;-70
2023/04/13 03:45:57;;;;;;;6.10;4.53;;;7.50;99.90;;;;;;4930021;29;20262;-70
2023/04/13 03:48:25;;;;;;;5.37;4.47;;;7.50;99.90;;;;;;4930220;29;20295;-70
2023/04/13 03:50:52;;;;;;;6.97;4.20;;;7.60;99.90;;;;;;4929951;29;20244;-70
2023/04/13 03:53:18;;;;;;;5.37;3.90;;;7.60;99.90;;;;;;4929812;29;20212;-71
2023/04/13 03:55:45;;;;;;;4.50;4.20;;;7.70;99.90;;;;;;4930138;29;20303;-70
2023/04/13 03:58:12;;;;;;;5.73;4.07;;;7.70;99.90;;;;;;4929931;29;20299;-70
2023/04/13 04:00:41;;;;;;;4.00;3.60;;;7.70;99.90;;;;;;4929706;29;20273;-70
2023/04/13 04:03:08;;;;;;;5.40;3.80;;;7.80;99.90;;;;;;4929381;29;20306;-70
2023/04/13 04:05:35;;;;;;;5.73;4.13;;;7.90;99.90;;;;;;4929668;29;20266;-71
2023/04/13 04:08:02;;;;;;;4.50;4.10;;;8.00;99.90;;;;;;4929491;29;20204;-70
2023/04/13 04:10:29;;;;;;;4.63;4.10;;;8.00;99.90;;;;;;4929393;29;20244;-71
2023/04/13 04:12:57;;;;;;;5.20;4.63;;;8.00;99.90;;;;;;4929930;29;20247;-70
2023/04/13 04:15:24;;;;;;;4.73;4.30;;;8.10;99.90;;;;;;4929466;29;20283;-71
2023/04/13 04:17:52;;;;;;;4.87;3.60;;;8.10;99.90;;;;;;4929428;29;20244;-70
2023/04/13 04:20:19;;;;;;;5.33;3.60;;;8.20;99.90;;;;;;4929597;29;20290;-70
2023/04/13 04:22:46;;;;;;;5.03;3.67;;;8.20;99.90;;;;;;4929494;29;20215;-71
2023/04/13 04:25:16;;;;;;;4.27;3.87;;;8.20;99.90;;;;;;4929153;29;20326;-70
2023/04/13 04:27:45;;;;;;;3.67;3.37;;;8.20;99.90;;;;;;4929333;29;20729;-71
2023/04/13 04:30:13;;;;;;;4.90;3.80;;;8.30;99.90;;;;;;4929295;29;20602;-71
2023/04/13 04:32:40;;;;;;;6.70;3.57;;;8.20;99.90;;;;;;4929352;29;20208;-71
2023/04/13 04:35:11;;;;;;;3.90;3.30;;;8.30;99.90;;;;;;4928990;29;20243;-70
2023/04/13 04:37:38;;;;;;;5.73;3.60;;;8.20;99.90;;;;;;4929025;29;20211;-70
2023/04/13 04:40:08;;;;;;;3.80;3.13;;;8.20;99.90;;;;;;4928967;29;20550;-71
2023/04/13 04:42:36;;;;;;;5.20;3.37;;;8.20;99.90;;;;;;4944974;29;20222;-71
2023/04/13 04:45:05;;;;;;;5.17;3.83;;;8.10;99.90;;;;;;4940465;28;20212;-70
2023/04/13 04:47:40;;;;;;;3.80;3.43;;;7.90;99.90;;;;;;4928571;29;20276;-70
2023/04/13 04:50:09;;;;;;;3.90;3.57;;;8.00;99.90;;;;;;4928923;29;20227;-70
2023/04/13 04:52:36;;;;;;;4.07;3.60;;;8.00;99.90;;;;;;4928885;29;20270;-70
2023/04/13 04:55:05;;;;;;;3.30;3.00;;;8.10;99.90;;;;;;4928729;29;20215;-70
2023/04/13 04:57:32;;;;;;;4.30;3.00;;;8.10;99.90;;;;;;4927776;29;20682;-71
2023/04/13 04:59:59;;;;;;;4.70;3.30;;;8.20;99.90;;;;;;4927918;29;20216;-71
2023/04/13 05:02:27;;;;;;;3.63;3.07;;;8.30;99.90;;;;;;4928779;29;20212;-71
2023/04/13 05:04:54;;;;;;;4.03;2.83;;;8.30;99.90;;;;;;4929181;29;20322;-70
2023/04/13 05:07:23;;;;;;;3.57;3.23;;;8.40;99.90;;;;;;4928664;29;20291;-71
2023/04/13 05:09:50;;;;;;;4.10;3.10;;;8.40;99.90;;;;;;4929243;29;20260;-71
2023/04/13 05:12:17;;;;;;;3.77;2.60;;;8.50;99.90;;;;;;4928677;29;20295;-71
2023/04/13 05:14:47;;;;;;;4.27;2.83;;;8.50;99.90;;;;;;4928652;29;20218;-71
2023/04/13 05:17:16;;;;;;;3.40;3.10;;;8.50;99.90;;;;;;4928609;29;20608;-71
2023/04/13 05:19:43;;;;;;;3.73;3.37;;;8.60;99.90;;;;;;4929186;29;20232;-71
2023/04/13 05:22:11;;;;;;;4.23;3.27;;;8.50;99.90;;;;;;4928741;29;20708;-70
2023/04/13 05:24:41;;;;;;;4.00;3.70;;;8.60;99.90;;;;;;4928703;29;20212;-70
2023/04/13 05:27:08;;;;;;;5.70;4.40;;;8.60;99.90;;;;;;4928580;29;20837;-70
2023/04/13 05:29:35;;;;;;;4.60;4.20;;;8.60;99.90;;;;;;4928612;29;20338;-70
2023/04/13 05:32:02;;;;;;;4.97;4.57;;;8.60;99.90;;;;;;4928606;29;20239;-70
2023/04/13 05:34:29;;;;;;;5.87;5.03;;;8.60;99.90;;;;;;4928735;29;20240;-71
2023/04/13 05:36:57;;;;;;;6.00;5.40;;;8.60;99.90;;;;;;4929707;29;20829;-70
2023/04/13 05:39:24;;;;;;;5.17;4.67;;;8.60;99.90;;;;;;4948011;28;20218;-70
2023/04/13 05:41:52;;;;;;;4.60;4.30;;;8.60;99.90;;;;;;4936539;28;20223;-71
2023/04/13 05:44:19;;;;;;;4.93;4.43;;;8.60;99.90;;;;;;4928198;29;20303;-70
2023/04/13 05:46:47;;;;;;;5.10;4.70;;;8.60;99.90;;;;;;4928373;29;20223;-71
2023/04/13 05:49:14;;;;;;;5.17;4.63;;;8.60;99.90;;;;;;4928636;29;20215;-70
2023/04/13 05:51:41;;;;;;;5.30;4.80;;;8.60;99.90;;;;;;4928110;29;20699;-71
2023/04/13 05:54:09;;;;;;;4.87;4.47;;;8.50;99.90;;;;;;4928368;29;20303;-70
2023/04/13 05:56:36;;;;;;;5.50;4.80;;;8.60;99.90;;;;;;4928554;29;20212;-71
2023/04/13 05:59:04;;;;;;;4.40;4.07;;;8.60;99.90;;;;;;4932022;29;20311;-71
2023/04/13 06:01:31;;;;;;;4.63;4.20;;;8.60;99.90;;;;;;4932093;29;20212;-70
2023/04/13 06:04:01;;;;;;;4.93;4.53;;;8.60;99.90;;;;;;4932144;29;20319;-71
2023/04/13 06:06:29;;;;;;;5.27;4.43;;;8.70;99.90;;;;;;4932218;29;20271;-71
2023/04/13 06:08:56;;;;;;;4.40;4.10;;;8.60;99.90;;;;;;4931962;29;20212;-71
2023/04/13 06:11:23;;;;;;;4.73;4.33;;;8.70;99.90;;;;;;4931683;29;20343;-71
2023/04/13 06:13:50;;;;;;;6.67;4.33;;;8.70;99.90;;;;;;4931924;29;20303;-70
2023/04/13 06:16:19;;;;;;;4.37;3.97;;;8.80;99.90;;;;;;4931696;29;20255;-70
2023/04/13 06:18:46;;;;;;;4.97;3.90;;;8.80;99.90;;;;;;4932139;29;20243;-71
2023/04/13 06:21:13;;;;;;;3.90;3.60;;;8.80;99.90;;;;;;4931671;29;20675;-70
2023/04/13 06:23:40;;;;;;;3.70;3.33;;;8.70;99.90;;;;;;4931824;29;20326;-70
2023/04/13 06:26:07;;;;;;;4.63;4.23;;;8.80;99.90;;;;;;4931434;29;20212;-70
2023/04/13 06:28:34;;;;;;;3.50;3.20;;;8.80;99.90;;;;;;4931697;29;20220;-71
2023/04/13 06:31:01;;;;;;;4.50;4.10;;;8.80;99.90;;;;;;4931471;29;20753;-70
2023/04/13 06:33:30;;;;;;;7.07;3.77;;;8.80;99.90;;;;;;4933301;29;20258;-70
2023/04/13 06:35:57;;;;;;;3.93;3.63;;;8.70;99.90;;;;;;4950858;28;20216;-71
2023/04/13 06:38:24;;;;;;;3.63;3.33;;;8.70;99.90;;;;;;4936965;28;20307;-70
2023/04/13 06:40:51;;;;;;;4.30;4.00;;;8.70;99.90;;;;;;4931268;29;20248;-70
2023/04/13 06:43:18;;;;;;;3.57;3.20;;;8.70;99.90;;;;;;4931526;29;20291;-70
2023/04/13 06:45:45;;;;;;;3.67;3.43;;;8.60;99.90;;;;;;4931017;29;20224;-70
2023/04/13 06:48:11;;;;;;;3.97;3.40;;;8.70;99.90;;;;;;4931189;29;20279;-70
2023/04/13 06:50:40;;;;;;;3.60;3.30;;;8.80;99.90;;;;;;4931349;29;20327;-70
2023/04/13 06:53:07;;;;;;;3.60;3.17;;;8.80;99.90;;;;;;4931455;29;20208;-70
2023/04/13 06:55:34;;;;;;;3.27;3.07;;;8.80;99.90;;;;;;4931474;29;20211;-70
2023/04/13 06:58:01;;;;;;;4.00;3.07;;;8.90;99.90;;;;;;4930846;29;20216;-71
2023/04/13 07:00:28;;;;;;;2.90;2.70;;;8.90;99.90;;;;;;4934496;29;20801;-70
2023/04/13 07:02:55;;;;;;;3.17;2.80;;;8.90;99.90;;;;;;4950515;28;20261;-70
2023/04/13 07:05:22;;;;;;;5.37;2.77;;;9.00;99.90;;;;;;4931558;28;20295;-70
2023/04/13 07:07:50;;;;;;;2.33;2.20;;;9.00;99.90;;;;;;4919819;29;20304;-70
2023/04/13 07:10:17;;;;;;;3.80;2.60;;;9.00;99.90;;;;;;4911082;29;20759;-70
2023/04/13 07:12:44;;;;;;;2.43;2.03;;;9.10;99.90;;;;;;4912154;29;20646;-70
2023/04/13 07:15:11;;;;;;;2.53;2.33;;;9.10;99.90;;;;;;4911434;29;20209;-70
2023/04/13 07:17:38;;;;;;;2.67;2.20;;;9.10;99.90;;;;;;4911647;29;20324;-71
2023/04/13 07:20:09;;;;;;;3.40;2.40;;;9.20;99.90;;;;;;4911728;29;20300;-70
2023/04/13 07:22:37;;;;;;;2.40;2.30;;;9.20;99.90;;;;;;4911966;29;20807;-70
2023/04/13 07:25:09;;;;;;;2.50;2.30;;;9.20;99.90;;;;;;4912052;29;20311;-70
2023/04/13 07:27:39;;;;;;;2.53;2.33;;;9.20;99.90;;;;;;4911747;29;20240;-71
2023/04/13 07:30:08;;;;;;;3.30;2.03;;;9.30;99.90;;;;;;4919618;29;20319;-70
2023/04/13 07:32:39;;;;;;;3.60;2.23;;;9.30;99.90;;;;;;4930937;29;20204;-71
2023/04/13 07:35:09;;;;;;;2.63;2.43;;;9.30;99.90;;;;;;4930985;29;20204;-71
2023/04/13 07:37:36;;;;;;;2.40;2.20;;;9.30;99.90;;;;;;4930329;29;20239;-70
2023/04/13 07:40:10;;;;;;;2.90;2.20;;;9.40;99.90;;;;;;4930446;29;20323;-71
2023/04/13 07:42:37;;;;;;;2.10;1.77;;;9.40;99.90;;;;;;4930728;29;20702;-71
2023/04/13 07:45:04;;;;;;;1.90;1.70;;;9.50;99.90;;;;;;4930053;29;20218;-71
2023/04/13 07:47:32;;;;;;;6.70;2.00;;;9.50;99.90;;;;;;4930280;29;20303;-70
2023/04/13 07:49:59;;;;;;;1.73;1.60;;;9.50;99.90;;;;;;4929990;29;20232;-71
2023/04/13 07:52:26;;;;;;;2.03;1.50;;;9.50;99.90;;;;;;4930424;29;20216;-71
2023/04/13 07:54:53;;;;;;;3.33;1.70;;;9.40;99.90;;;;;;4930570;29;20299;-70
2023/04/13 07:57:21;;;;;;;1.90;1.80;;;9.40;99.90;;;;;;4930047;29;20718;-70
2023/04/13 07:59:48;;;;;;;2.70;1.43;;;9.50;99.90;;;;;;4930236;29;20212;-70
2023/04/13 08:02:16;;;;;;;1.43;1.40;;;9.60;99.90;;;;;;4929898;29;20306;-70
2023/04/13 08:04:44;;;;;;;1.70;1.60;;;9.60;99.90;;;;;;4929874;29;20236;-70
2023/04/13 08:07:11;;;;;;;1.87;1.40;;;9.70;99.90;;;;;;4929764;29;20303;-70
2023/04/13 08:09:40;;;;;;;1.60;1.40;;;9.70;99.90;;;;;;4929826;29;20314;-70
2023/04/13 08:12:08;;;;;;;1.43;1.33;;;9.80;99.90;;;;;;4929878;29;20240;-71
2023/04/13 08:14:36;;;;;;;2.13;1.63;;;9.80;99.90;;;;;;4929759;29;20694;-71
2023/04/13 08:17:04;;;;;;;1.97;1.27;;;9.90;99.90;;;;;;4929566;29;20244;-70
2023/04/13 08:19:32;;;;;;;1.60;1.50;;;9.90;99.90;;;;;;4929975;29;20212;-71
2023/04/13 08:21:59;;;;;;;1.50;1.10;;;10.00;99.90;;;;;;4929960;29;20239;-70
2023/04/13 08:24:26;;;;;;;1.67;1.57;;;10.10;99.90;;;;;;4930144;29;20216;-71
2023/04/13 08:26:56;;;;;;;1.67;1.30;;;10.20;99.90;;;;;;4929639;29;20212;-70
2023/04/13 08:29:24;;;;;;;1.43;1.33;;;10.00;99.90;;;;;;4929398;29;20241;-70
2023/04/13 08:31:52;;;;;;;1.23;1.13;;;10.10;99.90;;;;;;4929435;29;20637;-70
2023/04/13 08:34:19;;;;;;;2.03;0.97;;;10.00;99.90;;;;;;4929313;29;20750;-70
2023/04/13 08:36:46;;;;;;;1.83;1.27;;;10.00;99.90;;;;;;4929259;29;20745;-71
2023/04/13 08:39:13;;;;;;;1.47;1.00;;;10.00;99.90;;;;;;4929360;29;20247;-70
2023/04/13 08:41:45;;;;;;;2.73;1.07;;;10.10;99.90;;;;;;4929031;29;20226;-70
2023/04/13 08:44:13;;;;;;;0.97;0.80;;;10.10;99.90;;;;;;4928771;29;20717;-71
2023/04/13 08:46:41;;;;;;;0.60;0.60;;;10.10;99.90;;;;;;4929001;29;20252;-70
2023/04/13 08:49:11;;;;;;;2.73;1.33;;;10.10;99.90;;;;;;4928904;29;20209;-71
2023/04/13 08:51:40;;;;;;;4.30;1.40;;;10.20;99.90;;;;;;4929113;29;20318;-70
2023/04/13 08:54:07;;;;;;;1.80;0.90;;;10.00;99.90;;;;;;4916685;29;20264;-70
2023/04/13 08:56:35;;;;;;;1.33;1.00;;;10.10;99.90;;;;;;4918074;29;20319;-71
2023/04/13 08:59:05;;;;;;;3.00;1.00;;;10.10;99.90;;;;;;4921944;29;20303;-70
2023/04/13 09:01:34;;;;;;;2.13;1.00;;;10.00;99.90;;;;;;4910037;29;20197;-70
2023/04/13 09:04:07;;;;;;;0.60;0.60;;;10.00;99.90;;;;;;4909397;29;20229;-70
2023/04/13 09:06:40;;;;;;;1.43;0.87;;;10.00;99.90;;;;;;4910160;29;20200;-70
2023/04/13 09:09:09;;;;;;;0.73;0.70;;;10.10;99.90;;;;;;4909455;29;20292;-70
2023/04/13 09:11:36;;;;;;;1.40;0.90;;;10.10;99.90;;;;;;4909579;29;20240;-70
2023/04/13 09:14:03;;;;;;;1.33;1.00;;;10.20;99.90;;;;;;4909544;29;20212;-71
2023/04/13 09:16:37;;;;;;;1.57;1.00;;;10.30;99.90;;;;;;4909298;29;20245;-70
2023/04/13 09:19:04;;;;;;;1.03;0.67;;;10.30;99.90;;;;;;4909378;29;20205;-71
2023/04/13 09:21:38;;;;;;;0.60;0.60;;;10.40;99.90;;;;;;4909493;29;20222;-70
2023/04/13 09:24:06;;;;;;;1.93;0.70;;;10.50;99.90;;;;;;4945848;29;20950;-71
2023/04/13 09:26:42;;;;;;;1.70;0.80;;;10.50;99.90;;;;;;4938318;28;20658;-71
2023/04/13 09:29:12;;;;;;;0.90;0.90;;;10.60;99.90;;;;;;4920265;29;20219;-70
2023/04/13 09:31:40;;;;;;;1.83;1.00;;;10.60;99.90;;;;;;4910697;29;20236;-70
2023/04/13 09:34:07;;;;;;;0.80;0.80;;;10.60;99.90;;;;;;4915599;29;20268;-70
2023/04/13 09:36:35;;;;;;;1.90;0.93;;;10.60;99.90;;;;;;4915942;29;20637;-70
2023/04/13 09:39:04;;;;;;;1.27;0.90;;;10.60;99.90;;;;;;4933700;29;20291;-70
2023/04/13 09:41:32;;;;;;;1.90;1.07;;;10.60;99.90;;;;;;4934701;29;20779;-70
2023/04/13 09:44:00;;;;;;;2.53;0.73;;;10.70;99.90;;;;;;4934728;29;20670;-70
2023/04/13 09:46:27;;;;;;;1.80;0.83;;;10.70;99.90;;;;;;4934836;29;20216;-70
2023/04/13 09:49:04;;;;;;;1.23;1.13;;;10.80;99.90;;;;;;4934495;29;20216;-70
2023/04/13 09:51:38;;;;;;;1.83;1.00;;;10.80;99.90;;;;;;4934416;29;20310;-71
2023/04/13 09:54:06;;;;;;;1.30;0.77;;;11.00;99.90;;;;;;4934489;29;20303;-71
2023/04/13 09:56:44;;;;;;;2.93;0.90;;;11.10;99.90;;;;;;4934495;29;21052;-71
2023/04/13 09:59:12;;;;;;;0.60;0.60;;;11.10;99.90;;;;;;4934470;29;20230;-70
2023/04/13 10:01:40;;;;;;;1.93;1.10;;;11.30;99.90;;;;;;4934614;29;20239;-70
2023/04/13 10:04:08;;;;;;;0.60;0.60;;;11.30;99.90;;;;;;4934392;29;20286;-71
2023/04/13 10:06:39;;;;;;;2.00;0.77;;;11.50;99.90;;;;;;4933006;29;20299;-70
2023/04/13 10:09:07;;;;;;;0.53;0.50;;;11.60;99.90;;;;;;4915538;29;20770;-71
2023/04/13 10:11:38;;;;;;;1.17;0.60;;;11.60;99.90;;;;;;4915336;29;20814;-70
2023/04/13 10:14:14;;;;;;;1.97;0.53;;;11.80;99.90;;;;;;4915376;29;20585;-71
2023/04/13 10:17:11;;;;;;;1.23;0.70;;;11.90;99.90;;;;;;4915150;29;20339;-70
2023/04/13 10:19:42;;;;;;;2.87;0.90;;;12.00;99.90;;;;;;4921752;29;20223;-70
2023/04/13 10:22:11;;;;;;;0.57;0.57;;;12.00;99.90;;;;;;4934287;29;20255;-70
2023/04/13 10:24:41;;;;;;;1.30;0.60;;;12.00;99.90;;;;;;4934648;29;20218;-71
2023/04/13 10:27:13;;;;;;;1.13;0.47;;;12.00;99.90;;;;;;4934147;29;20243;-71
2023/04/13 10:29:40;;;;;;;3.00;2.10;;;12.00;99.90;;;;;;4934192;29;20621;-70
2023/04/13 10:32:07;;;;;;;0.70;0.70;;;11.90;99.90;;;;;;4934167;29;20236;-71
2023/04/13 10:34:37;;;;;;;2.60;1.57;;;11.70;99.90;;;;;;4934601;29;20222;-70
2023/04/13 10:37:05;;;;;;;0.97;0.83;;;11.60;99.90;;;;;;4933881;29;20325;-70
2023/04/13 10:39:34;;;;;;;1.73;0.53;;;11.60;99.90;;;;;;4934284;29;20212;-70
2023/04/13 10:42:04;;;;;;;2.60;0.97;;;11.70;99.90;;;;;;4933771;29;20220;-71
2023/04/13 10:44:44;;;;;;;2.40;0.77;;;11.70;99.90;;;;;;4930308;29;20204;-70
2023/04/13 10:47:12;;;;;;;1.67;0.70;;;11.80;99.90;;;;;;4933065;29;20283;-70
2023/04/13 10:49:39;;;;;;;2.33;0.70;;;11.80;99.90;;;;;;4930938;29;20913;-71
2023/04/13 10:52:06;;;;;;;1.80;0.90;;;11.90;99.90;;;;;;4931124;29;20247;-71
2023/04/13 10:54:35;;;;;;;1.63;0.83;;;12.00;99.90;;;;;;4931090;29;20326;-70
2023/04/13 10:57:05;;;;;;;0.97;0.60;;;12.10;99.90;;;;;;4930659;29;20303;-70
2023/04/13 10:59:43;;;;;;;2.17;0.70;;;12.20;99.90;;;;;;4930987;29;20589;-71
2023/04/13 11:02:13;;;;;;;1.93;0.97;;;12.20;99.90;;;;;;4930861;29;20242;-70
2023/04/13 11:04:40;;;;;;;0.70;0.60;;;12.10;99.90;;;;;;4930913;29;20586;-70
2023/04/13 11:07:08;;;;;;;4.20;0.60;;;12.00;99.90;;;;;;4930799;29;20212;-70
2023/04/13 11:09:35;;;;;;;0.70;0.70;;;12.10;99.90;;;;;;4930972;29;20243;-70
2023/04/13 11:12:04;;;;;;;1.00;0.70;;;12.20;99.90;;;;;;4930342;29;20235;-70
2023/04/13 11:14:31;;;;;;;2.23;0.80;;;12.30;99.90;;;;;;4932225;29;20231;-71
2023/04/13 11:16:57;;;;;;;2.00;0.80;;;12.40;99.90;;;;;;4949353;28;20247;-72
2023/04/13 11:19:24;;;;;;;0.70;0.70;;;12.50;99.90;;;;;;4938286;28;20770;-71
2023/04/13 11:21:56;;;;;;;1.70;0.70;;;12.50;99.90;;;;;;4930597;29;20230;-70
2023/04/13 11:24:27;;;;;;;2.60;0.60;;;12.50;99.90;;;;;;4930653;29;20220;-70
2023/04/13 11:26:54;;;;;;;1.73;0.57;;;12.50;99.90;;;;;;4930907;29;20303;-70
2023/04/13 11:29:22;;;;;;;1.37;0.60;;;12.50;99.90;;;;;;4930322;29;20220;-70
2023/04/13 11:31:49;;;;;;;1.23;0.73;;;12.50;99.90;;;;;;4930573;29;20256;-70
2023/04/13 11:34:25;;;;;;;0.73;0.73;;;12.50;99.90;;;;;;4930427;29;20220;-71
2023/04/13 11:36:59;;;;;;;1.87;0.97;;;12.50;99.90;;;;;;4930282;29;20200;-71
2023/04/13 11:39:26;;;;;;;1.50;0.47;;;12.60;99.90;;;;;;4930517;29;20204;-70
2023/04/13 11:41:53;;;;;;;0.77;0.73;;;12.70;99.90;;;;;;4930417;29;20220;-70
2023/04/13 11:44:20;;;;;;;1.93;0.67;;;12.70;99.90;;;;;;4929671;29;20263;-71
2023/04/13 11:46:51;;;;;;;2.60;0.67;;;12.80;99.90;;;;;;4930381;29;20208;-70
2023/04/13 11:49:18;;;;;;;1.50;0.63;;;12.80;99.90;;;;;;4930582;29;20223;-70
2023/04/13 11:51:45;;;;;;;0.53;0.53;;;12.80;99.90;;;;;;4930137;29;20312;-70
2023/04/13 11:54:13;;;;;;;1.30;0.63;;;12.80;99.90;;;;;;4930141;29;20216;-70
2023/04/13 11:56:40;;;;;;;6.13;1.00;;;12.80;99.90;;;;;;4929521;29;20212;-70
2023/04/13 11:59:08;;;;;;;1.63;0.80;;;12.80;99.90;;;;;;4929499;29;20231;-70
2023/04/13 12:01:35;;;;;;;1.23;0.63;;;12.90;99.90;;;;;;4929617;29;20215;-70
2023/04/13 12:04:04;;;;;;;2.17;0.90;;;13.00;99.90;;;;;;4929654;29;20902;-70
2023/04/13 12:06:32;;;;;;;2.50;0.80;;;13.00;99.90;;;;;;4928554;29;20228;-70
2023/04/13 12:08:59;;;;;;;1.90;0.90;;;13.00;99.90;;;;;;4910904;29;20255;-71
2023/04/13 12:11:35;;;;;;;0.83;0.67;;;12.90;99.90;;;;;;4919301;29;20303;-70
2023/04/13 12:14:03;;;;;;;2.10;0.57;;;12.80;99.90;;;;;;4929418;29;20196;-71
2023/04/13 12:16:32;;;;;;;0.83;0.60;;;12.70;99.90;;;;;;4929013;29;20247;-71
2023/04/13 12:19:07;;;;;;;0.87;0.50;;;12.70;99.90;;;;;;4929232;29;20969;-71
2023/04/13 12:21:34;;;;;;;0.87;0.60;;;12.60;99.90;;;;;;4929324;29;20206;-71
2023/04/13 12:24:03;;;;;;;1.90;1.00;;;12.50;99.90;;;;;;4929143;29;20719;-70
2023/04/13 12:26:33;;;;;;;0.63;0.63;;;12.50;99.90;;;;;;4929020;29;20243;-71
2023/04/13 12:29:02;;;;;;;1.17;1.07;;;12.60;99.90;;;;;;4928993;29;20591;-70
2023/04/13 12:31:34;;;;;;;1.70;0.70;;;12.70;99.90;;;;;;4929339;29;20219;-71
2023/04/13 12:34:01;;;;;;;1.87;0.73;;;12.80;99.90;;;;;;4928876;29;20208;-71
2023/04/13 12:36:30;;;;;;;1.10;0.80;;;12.80;99.90;;;;;;4929122;29;20678;-70
2023/04/13 12:38:58;;;;;;;1.27;0.87;;;12.90;99.90;;;;;;4929264;29;20666;-70
2023/04/13 12:41:25;;;;;;;1.00;0.60;;;12.90;99.90;;;;;;4928794;29;20549;-70
2023/04/13 12:43:52;;;;;;;1.30;1.00;;;12.90;99.90;;;;;;4929247;29;20307;-70
2023/04/13 12:46:19;;;;;;;2.73;0.90;;;13.00;99.90;;;;;;4929194;29;20244;-71
2023/04/13 12:48:46;;;;;;;3.93;0.60;;;13.20;99.90;;;;;;4929252;29;20576;-71
2023/04/13 12:51:13;;;;;;;2.00;1.00;;;13.40;99.90;;;;;;4928957;29;20244;-71
2023/04/13 12:53:41;;;;;;;0.90;0.63;;;13.60;99.90;;;;;;4928881;29;20331;-71
2023/04/13 12:56:08;;;;;;;1.67;0.73;;;13.70;99.90;;;;;;4928536;29;20303;-71
2023/04/13 12:58:35;;;;;;;2.20;0.90;;;13.70;99.90;;;;;;4928403;29;20302;-71